Time;durP1;ratioP1;P1;durP2;ratioP2;P2;SDS_P1;SDS_P2;PMS_P1;PMS_P2;Temp;Humidity;BMP_temperature;BMP_pressure;BME280_temperature;BME280_humidity;BME280_pressure;Samples;Min_cycle;Max_cycle;Signal;HPM_P1;HPM_P2
2022/06/15 00:01:04;;;;;;;9.03;5.63;;;;;;;11.53;96.14;99951.63;5053501;28;20045;-65
2022/06/15 00:03:32;;;;;;;10.40;5.50;;;;;;;11.36;96.04;99918.25;5053774;28;20095;-64
2022/06/15 00:06:10;;;;;;;7.25;5.43;;;;;;;11.46;95.71;99943.56;5053108;28;20043;-63
2022/06/15 00:08:36;;;;;;;9.10;6.32;;;;;;;11.41;96.75;99929.97;5052546;28;20041;-64
2022/06/15 00:11:13;;;;;;;12.53;6.07;;;;;;;11.57;97.15;99938.78;5052683;28;20033;-65
2022/06/15 00:13:39;;;;;;;9.43;5.03;;;;;;;11.67;96.98;99936.63;5052738;28;20063;-64
2022/06/15 00:16:06;;;;;;;9.20;5.27;;;;;;;11.57;96.09;99920.94;5052437;28;20037;-64
2022/06/15 00:18:36;;;;;;;7.17;4.60;;;;;;;11.58;95.84;99929.75;5052840;28;20178;-64
2022/06/15 00:21:02;;;;;;;5.43;4.53;;;;;;;11.49;96.48;99908.53;5051288;28;20052;-65
2022/06/15 00:23:30;;;;;;;9.37;4.77;;;;;;;11.54;96.25;99920.47;5052865;28;20051;-66
2022/06/15 00:25:56;;;;;;;8.40;4.70;;;;;;;11.47;96.15;99909.72;5052428;28;20045;-63
2022/06/15 00:28:22;;;;;;;10.63;6.00;;;;;;;11.47;96.29;99910.56;5052354;28;20075;-65
2022/06/15 00:30:51;;;;;;;6.60;4.30;;;;;;;11.46;96.16;99905.41;5052479;28;20481;-63
2022/06/15 00:33:19;;;;;;;7.90;4.77;;;;;;;11.45;96.54;99896.59;5052949;28;20032;-64
2022/06/15 00:35:57;;;;;;;9.20;5.53;;;;;;;11.51;96.15;99894.19;5051488;28;20029;-64
2022/06/15 00:38:24;;;;;;;7.30;4.43;;;;;;;11.45;95.93;99896.59;5052401;28;20048;-64
2022/06/15 00:40:50;;;;;;;8.50;5.22;;;;;;;11.47;96.22;99899.91;5052386;28;20041;-63
2022/06/15 00:43:28;;;;;;;10.37;5.73;;;;;;;11.45;95.75;99887.78;5053105;28;20087;-64
2022/06/15 00:45:54;;;;;;;8.35;5.50;;;;;;;11.48;96.18;99892.72;5057227;28;20043;-63
2022/06/15 00:48:19;;;;;;;8.33;5.43;;;;;;;11.54;96.84;99889.28;5054599;28;20029;-65
2022/06/15 00:50:45;;;;;;;5.37;4.63;;;;;;;11.59;96.69;99889.56;5055656;28;20036;-65
2022/06/15 00:53:11;;;;;;;9.07;5.70;;;;;;;11.64;96.23;99891.66;5055142;28;20079;-65
2022/06/15 00:55:38;;;;;;;6.70;4.93;;;;;;;11.55;95.51;99882.94;5051308;28;20071;-64
2022/06/15 00:58:08;;;;;;;8.07;5.17;;;;;;;11.59;95.86;99894.06;5052056;28;20068;-65
2022/06/15 01:00:34;;;;;;;6.43;5.10;;;;;;;11.40;96.14;99851.00;5052571;28;20047;-63
2022/06/15 01:03:00;;;;;;;9.83;5.50;;;;;;;11.65;95.80;99886.13;5052120;28;20163;-63
2022/06/15 01:05:49;;;;;;;7.13;5.23;;;;;;;11.68;96.23;99887.59;5051921;28;20060;-64
2022/06/15 01:08:45;;;;;;;8.30;5.70;;;;;;;11.73;95.55;99887.84;5053126;28;20044;-65
2022/06/15 01:11:22;;;;;;;7.60;5.40;;;;;;;11.75;95.37;99885.81;5051926;28;20439;-64
2022/06/15 01:14:06;;;;;;;8.70;5.77;;;;;;;11.74;95.41;99876.16;5051718;28;20033;-64
2022/06/15 01:16:57;;;;;;;6.37;5.67;;;;;;;11.73;95.66;99875.31;5051565;28;20377;-64
2022/06/15 01:19:56;;;;;;;7.47;5.80;;;;;;;11.80;95.28;99888.75;5052046;28;20041;-63
2022/06/15 01:22:46;;;;;;;8.23;5.87;;;;;;;11.75;95.23;99891.13;5054957;28;20067;-66
2022/06/15 01:25:36;;;;;;;10.67;6.30;;;;;;;11.69;95.79;99875.91;5056092;28;20032;-63
2022/06/15 01:28:13;;;;;;;8.33;5.83;;;;;;;11.78;95.60;99885.44;5055884;28;20456;-64
2022/06/15 01:30:42;;;;;;;7.77;5.90;;;;;;;11.82;96.05;99883.22;5054402;28;20116;-64
2022/06/15 01:33:14;;;;;;;8.10;5.70;;;;;;;11.81;95.91;99879.72;5055771;28;20035;-66
2022/06/15 01:35:45;;;;;;;11.10;6.37;;;;;;;11.83;95.43;99882.19;5056047;28;20083;-62
2022/06/15 01:38:22;;;;;;;9.30;5.80;;;;;;;11.75;95.54;99878.63;5055688;28;20076;-65
2022/06/15 01:40:57;;;;;;;6.47;4.93;;;;;;;11.76;95.37;99882.94;5055589;28;20041;-65
2022/06/15 01:43:30;;;;;;;7.50;5.10;;;;;;;11.66;95.16;99868.28;5056185;28;20119;-67
2022/06/15 01:45:58;;;;;;;7.47;5.53;;;;;;;11.69;95.65;99875.91;5055682;28;20040;-64
2022/06/15 01:48:27;;;;;;;7.63;5.88;;;;;;;11.55;95.28;99860.78;5055381;28;20074;-64
2022/06/15 01:50:59;;;;;;;8.83;6.13;;;;;;;11.46;95.86;99850.25;5055413;28;20064;-63
2022/06/15 01:53:33;;;;;;;6.57;5.40;;;;;;;11.58;95.78;99869.25;5055176;28;20398;-64
2022/06/15 01:56:05;;;;;;;7.00;5.57;;;;;;;11.57;95.79;99864.13;5055302;28;20047;-64
2022/06/15 01:58:33;;;;;;;6.00;5.10;;;;;;;11.60;95.71;99866.41;5055508;28;20037;-63
2022/06/15 02:01:11;;;;;;;7.05;5.18;;;;;;;11.55;95.41;99848.28;5055162;28;20124;-64
2022/06/15 02:03:51;;;;;;;;;;;;;;;11.68;94.69;99864.41;5054408;28;20039;-64
2022/06/15 02:06:38;;;;;;;8.23;5.00;;;;;;;11.57;95.01;99861.44;5055349;28;20015;-63
2022/06/15 02:09:15;;;;;;;5.93;5.30;;;;;;;11.63;95.30;99871.34;5055055;28;20044;-66
2022/06/15 02:11:43;;;;;;;7.93;5.82;;;;;;;11.62;95.37;99869.69;5055124;28;20131;-64
2022/06/15 02:14:18;;;;;;;7.37;5.47;;;;;;;11.63;95.67;99858.00;5055106;28;20044;-64
2022/06/15 02:16:50;;;;;;;6.13;5.13;;;;;;;11.65;95.59;99847.97;5054855;28;20151;-65
2022/06/15 02:19:18;;;;;;;8.63;4.60;;;;;;;11.70;95.27;99857.03;5053789;28;20416;-63
2022/06/15 02:21:48;;;;;;;5.57;4.50;;;;;;;11.76;94.93;99855.44;5054767;28;20060;-64
2022/06/15 02:24:17;;;;;;;6.47;4.97;;;;;;;11.75;94.84;99856.47;5054838;28;20041;-64
2022/06/15 02:26:43;;;;;;;6.30;4.60;;;;;;;11.76;95.06;99858.94;5054640;28;20566;-64
2022/06/15 02:29:19;;;;;;;4.80;4.37;;;;;;;11.71;94.81;99848.03;5054580;28;20124;-66
2022/06/15 02:31:45;;;;;;;6.07;4.93;;;;;;;11.81;94.68;99850.38;5054689;28;20071;-64
2022/06/15 02:34:11;;;;;;;5.63;4.93;;;;;;;11.81;94.12;99853.06;5054880;28;20503;-64
2022/06/15 02:36:37;;;;;;;7.93;5.07;;;;;;;11.31;94.21;99763.38;5054474;28;20048;-65
2022/06/15 02:39:06;;;;;;;9.13;5.00;;;;;;;11.84;93.97;99850.00;5054479;28;20053;-65
2022/06/15 02:41:32;;;;;;;6.20;4.90;;;;;;;11.86;94.19;99848.00;5054498;28;20500;-65
2022/06/15 02:43:59;;;;;;;5.73;5.13;;;;;;;11.76;93.57;99836.78;5054498;28;20056;-66
2022/06/15 02:46:29;;;;;;;7.47;5.40;;;;;;;11.88;93.72;99856.63;5054385;28;20412;-64
2022/06/15 02:48:55;;;;;;;6.97;4.93;;;;;;;11.95;93.54;99859.34;5053290;28;20032;-65
2022/06/15 02:51:35;;;;;;;9.37;5.27;;;;;;;11.83;93.40;99835.00;5054130;28;20045;-65
2022/06/15 02:54:09;;;;;;;10.90;6.17;;;;;;;11.92;93.23;99849.88;5054033;28;20048;-63
2022/06/15 02:56:36;;;;;;;9.20;6.83;;;;;;;11.71;92.75;99825.84;5053414;28;20039;-65
2022/06/15 02:59:02;;;;;;;9.00;6.40;;;;;;;11.90;92.82;99851.09;5054767;28;20066;-64
2022/06/15 03:01:28;;;;;;;6.37;5.77;;;;;;;11.79;92.66;99833.75;5052826;28;20126;-64
2022/06/15 03:03:54;;;;;;;7.17;6.47;;;;;;;11.90;92.52;99851.09;5054006;28;20511;-65
2022/06/15 03:06:21;;;;;;;11.17;7.00;;;;;;;11.90;92.78;99851.91;5054137;28;20489;-65
2022/06/15 03:08:46;;;;;;;9.27;6.00;;;;;;;11.86;92.75;99833.81;5053574;28;20408;-65
2022/06/15 03:11:12;;;;;;;13.63;6.27;;;;;;;11.89;92.73;99833.44;5054402;28;20037;-64
2022/06/15 03:14:03;;;;;;;15.20;6.97;;;;;;;12.08;92.06;99846.06;5054175;28;20130;-64
2022/06/15 03:16:29;;;;;;;11.83;6.77;;;;;;;12.07;91.75;99847.94;5053850;28;20049;-65
2022/06/15 03:18:55;;;;;;;9.97;6.50;;;;;;;12.04;91.59;99842.97;5053995;28;20041;-64
2022/06/15 03:21:21;;;;;;;8.07;6.03;;;;;;;12.04;91.88;99826.97;5054638;28;20503;-65
2022/06/15 03:23:47;;;;;;;12.70;7.10;;;;;;;12.22;91.18;99844.34;5054862;28;20040;-63
2022/06/15 03:26:12;;;;;;;10.40;6.43;;;;;;;12.22;91.04;99839.81;5054260;28;20029;-63
2022/06/15 03:28:38;;;;;;;11.20;6.50;;;;;;;12.31;90.71;99837.81;5052353;28;20077;-64
2022/06/15 03:31:04;;;;;;;8.47;6.03;;;;;;;12.34;90.19;99830.25;5053598;28;20488;-63
2022/06/15 03:33:29;;;;;;;9.73;6.27;;;;;;;12.43;89.87;99824.72;5053289;28;20068;-62
2022/06/15 03:35:55;;;;;;;8.93;6.33;;;;;;;12.51;89.67;99824.59;5053586;28;20457;-64
2022/06/15 03:38:21;;;;;;;7.50;6.03;;;;;;;12.45;89.79;99788.81;5053507;28;20078;-63
2022/06/15 03:40:48;;;;;;;9.00;5.73;;;;;;;12.80;89.17;99815.47;5053398;28;20033;-63
2022/06/15 03:43:15;;;;;;;7.50;5.97;;;;;;;12.94;89.03;99823.31;5053005;28;20072;-65
2022/06/15 03:45:42;;;;;;;6.67;5.17;;;;;;;13.03;88.76;99823.97;5051642;28;20048;-65
2022/06/15 03:48:08;;;;;;;7.57;5.83;;;;;;;13.05;88.26;99819.25;5053120;28;20033;-65
2022/06/15 03:50:35;;;;;;;5.80;5.10;;;;;;;13.15;87.36;99822.34;5053542;28;20071;-65
2022/06/15 03:53:02;;;;;;;7.50;5.43;;;;;;;13.12;87.26;99825.44;5053179;28;20049;-64
2022/06/15 03:55:29;;;;;;;10.53;6.57;;;;;;;13.02;87.92;99825.84;5052942;28;20127;-63
2022/06/15 03:57:55;;;;;;;11.07;6.43;;;;;;;13.03;88.10;99834.69;5053033;28;20488;-64
2022/06/15 04:00:22;;;;;;;6.40;5.80;;;;;;;12.88;87.82;99813.44;5053007;28;20047;-65
2022/06/15 04:02:47;;;;;;;7.03;5.93;;;;;;;12.93;88.83;99824.34;5052707;28;20041;-65
2022/06/15 04:05:19;;;;;;;8.00;6.30;;;;;;;12.95;88.78;99835.66;5052723;28;20561;-65
2022/06/15 04:10:29;;;;;;;6.73;4.67;;;;;;;12.81;88.42;99825.13;5053170;28;20435;-63
2022/06/15 04:12:54;;;;;;;6.23;5.57;;;;;;;12.71;89.10;99815.63;5053048;28;20124;-64
2022/06/15 04:15:21;;;;;;;5.47;4.73;;;;;;;12.69;88.86;99830.19;5052410;28;20044;-64
2022/06/15 04:17:46;;;;;;;6.10;5.50;;;;;;;12.76;89.32;99830.25;5052387;28;20111;-66
2022/06/15 04:20:31;;;;;;;7.17;6.43;;;;;;;12.76;89.07;99823.06;5052649;28;20033;-64
2022/06/15 04:23:01;;;;;;;9.07;6.67;;;;;;;12.79;88.58;99829.84;5052564;28;20044;-63
2022/06/15 04:25:31;;;;;;;6.20;5.43;;;;;;;12.75;88.48;99823.25;5052342;28;20087;-65
2022/06/15 04:27:57;;;;;;;5.43;5.00;;;;;;;12.73;88.52;99819.97;5052958;28;20056;-66
2022/06/15 04:30:23;;;;;;;9.70;5.60;;;;;;;12.81;88.44;99819.78;5053888;28;20128;-64
2022/06/15 04:32:49;;;;;;;5.77;5.17;;;;;;;12.85;87.89;99823.72;5054150;28;20041;-64
2022/06/15 04:35:15;;;;;;;5.50;4.70;;;;;;;12.89;88.20;99808.91;5053172;28;20412;-65
2022/06/15 04:37:41;;;;;;;7.27;4.83;;;;;;;13.07;87.27;99817.19;5052447;28;20044;-65
2022/06/15 04:40:07;;;;;;;6.70;4.93;;;;;;;13.23;87.05;99819.53;5052284;28;20095;-64
2022/06/15 04:42:33;;;;;;;10.03;4.83;;;;;;;13.33;86.45;99806.59;5052002;28;20056;-69
2022/06/15 04:44:58;;;;;;;5.70;4.50;;;;;;;13.31;86.29;99797.13;5052393;28;20041;-66
2022/06/15 04:47:24;;;;;;;5.67;4.37;;;;;;;13.36;86.04;99797.34;5052298;28;20411;-63
2022/06/15 04:49:49;;;;;;;5.23;4.13;;;;;;;13.42;85.64;99798.38;5052122;28;20480;-66
2022/06/15 04:52:16;;;;;;;5.47;3.90;;;;;;;13.38;84.81;99795.28;5052254;28;20053;-65
2022/06/15 04:54:42;;;;;;;5.60;4.67;;;;;;;13.43;85.09;99792.81;5052148;28;20045;-63
2022/06/15 04:57:08;;;;;;;4.33;3.93;;;;;;;13.47;85.04;99793.22;5050858;28;20044;-65
2022/06/15 04:59:33;;;;;;;6.87;4.00;;;;;;;13.65;84.91;99796.13;5052015;28;20395;-66
2022/06/15 05:01:59;;;;;;;5.40;4.50;;;;;;;13.67;84.26;99802.09;5051591;28;20032;-64
2022/06/15 05:04:25;;;;;;;7.50;4.43;;;;;;;13.68;83.70;99781.50;5051863;28;20068;-64
2022/06/15 05:06:51;;;;;;;5.13;4.57;;;;;;;13.69;84.22;99778.63;5051745;28;20033;-64
2022/06/15 05:09:17;;;;;;;4.40;3.97;;;;;;;13.84;84.37;99784.56;5051681;28;20119;-65
2022/06/15 05:11:44;;;;;;;5.50;4.53;;;;;;;14.01;84.67;99795.69;5051749;28;20033;-65
2022/06/15 05:14:10;;;;;;;4.97;4.43;;;;;;;14.04;84.31;99787.22;5052253;28;20056;-64
2022/06/15 05:16:37;;;;;;;5.40;4.80;;;;;;;14.01;84.25;99771.59;5051738;28;20519;-63
2022/06/15 05:19:03;;;;;;;6.70;5.23;;;;;;;14.23;84.01;99782.88;5050548;28;20075;-64
2022/06/15 05:21:29;;;;;;;5.37;4.50;;;;;;;14.20;82.35;99770.72;5051564;28;20041;-65
2022/06/15 05:23:55;;;;;;;5.03;4.40;;;;;;;14.21;82.01;99772.38;5050386;28;20094;-66
2022/06/15 05:26:24;;;;;;;6.63;5.73;;;;;;;14.29;83.17;99767.81;5051974;28;20056;-60
2022/06/15 05:28:51;;;;;;;6.87;5.57;;;;;;;14.40;82.40;99759.13;5050530;28;20066;-63
2022/06/15 05:31:21;;;;;;;6.50;5.33;;;;;;;14.53;81.75;99770.66;5051778;28;20048;-63
2022/06/15 05:33:53;;;;;;;10.60;8.93;;;;;;;14.58;81.73;99767.34;5052071;28;20040;-64
2022/06/15 05:36:21;;;;;;;9.27;6.03;;;;;;;14.67;81.79;99765.22;5051576;28;20120;-64
2022/06/15 05:38:46;;;;;;;6.37;5.20;;;;;;;14.71;81.28;99755.72;5051109;28;20085;-64
2022/06/15 05:41:12;;;;;;;6.20;5.67;;;;;;;14.89;81.08;99755.84;5051298;28;20267;-63
2022/06/15 05:43:45;;;;;;;5.80;5.30;;;;;;;14.90;80.56;99728.00;5051484;28;20043;-63
2022/06/15 05:46:12;;;;;;;6.67;5.97;;;;;;;15.16;80.36;99749.28;5051711;28;20036;-63
2022/06/15 05:48:38;;;;;;;7.60;5.50;;;;;;;15.35;79.30;99754.72;5051423;28;20141;-62
2022/06/15 05:51:03;;;;;;;6.17;5.57;;;;;;;15.48;77.93;99760.78;5051387;28;20369;-64
2022/06/15 05:53:30;;;;;;;7.97;5.90;;;;;;;15.48;77.73;99742.00;5051883;28;20057;-65
2022/06/15 05:55:56;;;;;;;6.40;5.80;;;;;;;15.57;77.43;99745.22;5051744;28;20079;-65
2022/06/15 05:58:21;;;;;;;10.67;7.63;;;;;;;15.62;77.65;99748.13;5051737;28;20072;-61
2022/06/15 06:00:47;;;;;;;7.60;6.40;;;;;;;15.46;76.72;99748.63;5051603;28;20037;-65
2022/06/15 06:03:12;;;;;;;8.77;6.60;;;;;;;15.35;77.94;99744.81;5050376;28;20036;-64
2022/06/15 06:05:38;;;;;;;8.73;6.60;;;;;;;15.22;77.76;99746.75;5051889;28;20069;-65
2022/06/15 06:08:05;;;;;;;8.57;6.83;;;;;;;15.36;78.73;99751.00;5054289;28;20029;-61
2022/06/15 06:10:31;;;;;;;8.50;6.30;;;;;;;15.64;78.07;99748.72;5066411;28;20072;-62
2022/06/15 06:12:56;;;;;;;10.07;7.20;;;;;;;15.78;76.77;99736.81;5067048;28;20029;-62
2022/06/15 06:15:22;;;;;;;7.10;6.40;;;;;;;15.94;75.57;99735.44;5066345;28;20069;-62
2022/06/15 06:17:52;;;;;;;7.73;6.93;;;;;;;16.21;75.27;99745.91;5057480;28;20458;-65
2022/06/15 06:20:17;;;;;;;8.23;6.47;;;;;;;16.37;74.04;99735.34;5054022;28;20045;-65
2022/06/15 06:22:43;;;;;;;6.50;5.90;;;;;;;16.52;72.35;99748.41;5055147;28;20045;-65
2022/06/15 06:25:10;;;;;;;7.40;6.50;;;;;;;16.49;71.93;99737.31;5055173;28;20033;-65
2022/06/15 06:27:36;;;;;;;16.85;7.28;;;;;;;16.46;72.02;99710.84;5054944;28;20036;-63
2022/06/15 06:30:03;;;;;;;8.57;6.67;;;;;;;16.78;71.74;99741.91;5054790;28;20471;-66
2022/06/15 06:32:29;;;;;;;9.70;7.03;;;;;;;16.82;70.72;99740.41;5055039;28;20083;-65
2022/06/15 06:34:55;;;;;;;7.33;6.63;;;;;;;16.68;70.95;99741.63;5054645;28;20033;-65
2022/06/15 06:37:22;;;;;;;8.07;7.27;;;;;;;16.46;71.44;99729.66;5053625;28;20037;-62
2022/06/15 06:39:53;;;;;;;8.10;7.17;;;;;;;16.33;73.18;99720.72;5054573;28;20033;-63
2022/06/15 06:42:19;;;;;;;10.57;6.93;;;;;;;16.34;72.93;99730.44;5054951;28;20381;-63
2022/06/15 06:44:44;;;;;;;11.10;6.97;;;;;;;16.21;71.80;99729.78;5053492;28;20044;-64
2022/06/15 06:47:10;;;;;;;12.17;8.23;;;;;;;16.14;74.07;99724.47;5054425;28;20044;-64
2022/06/15 06:49:36;;;;;;;9.77;7.63;;;;;;;16.00;73.51;99739.09;5053268;28;20033;-65
2022/06/15 06:52:03;;;;;;;9.87;7.37;;;;;;;15.67;75.21;99708.03;5054547;28;20584;-62
2022/06/15 06:54:29;;;;;;;9.60;8.70;;;;;;;15.62;75.38;99734.72;5057566;28;20161;-66
2022/06/15 06:56:55;;;;;;;8.87;7.93;;;;;;;15.48;76.19;99741.19;5057281;28;20033;-65
2022/06/15 06:59:20;;;;;;;13.27;10.03;;;;;;;15.34;76.41;99718.22;5056440;28;20485;-66
2022/06/15 07:01:47;;;;;;;10.57;9.30;;;;;;;15.39;77.11;99726.41;5055281;28;20044;-65
2022/06/15 07:04:15;;;;;;;16.67;9.63;;;;;;;15.45;76.23;99733.56;5052647;28;20515;-66
2022/06/15 07:06:41;;;;;;;12.50;9.60;;;;;;;15.52;76.61;99733.50;5054065;28;20082;-62
2022/06/15 07:09:07;;;;;;;16.70;9.87;;;;;;;15.48;76.04;99730.44;5054508;28;20032;-62
2022/06/15 07:11:32;;;;;;;15.83;11.73;;;;;;;15.48;77.33;99736.63;5054392;28;20044;-64
2022/06/15 07:13:58;;;;;;;11.30;9.53;;;;;;;15.46;76.96;99721.81;5055940;28;20029;-62
2022/06/15 07:16:24;;;;;;;12.23;9.83;;;;;;;15.48;77.50;99739.31;5057141;28;20091;-63
2022/06/15 07:18:51;;;;;;;11.37;10.17;;;;;;;15.41;76.96;99738.56;5054711;28;20183;-62
2022/06/15 07:21:22;;;;;;;10.77;9.70;;;;;;;15.29;77.32;99739.47;5054372;28;20033;-65
2022/06/15 07:23:50;;;;;;;10.77;9.67;;;;;;;15.07;77.17;99726.44;5054215;28;20039;-64
2022/06/15 07:26:19;;;;;;;11.93;10.67;;;;;;;15.14;78.21;99755.91;5053922;28;20044;-65
2022/06/15 07:28:45;;;;;;;12.40;10.07;;;;;;;15.11;78.78;99742.91;5053863;28;20036;-65
2022/06/15 07:31:26;;;;;;;14.33;10.50;;;;;;;15.12;79.01;99745.38;5053852;28;20463;-68
2022/06/15 07:33:51;;;;;;;12.03;10.93;;;;;;;15.08;78.99;99744.19;5054000;28;20036;-66
2022/06/15 07:36:18;;;;;;;15.63;13.97;;;;;;;15.02;78.97;99747.69;5053609;28;20094;-66
2022/06/15 07:38:43;;;;;;;14.83;10.97;;;;;;;14.94;79.37;99745.28;5053611;28;20040;-65
2022/06/15 07:41:09;;;;;;;15.87;10.00;;;;;;;14.82;78.94;99738.97;5053283;28;20041;-68
2022/06/15 07:43:35;;;;;;;18.00;9.87;;;;;;;14.84;79.51;99750.31;5053475;28;20037;-66
2022/06/15 07:46:00;;;;;;;11.97;9.60;;;;;;;14.83;78.40;99743.28;5053279;28;20041;-66
2022/06/15 07:51:31;;;;;;;12.37;9.40;;;;;;;14.66;81.26;99726.88;5053308;28;20052;-68
2022/06/15 07:53:58;;;;;;;21.73;17.37;;;;;;;14.67;81.35;99727.69;5053126;28;20053;-68
2022/06/15 07:56:24;;;;;;;12.23;9.50;;;;;;;14.93;80.28;99781.19;5052915;28;20554;-66
2022/06/15 07:58:50;;;;;;;12.43;9.43;;;;;;;14.86;80.77;99770.50;5053178;28;20415;-63
2022/06/15 08:01:15;;;;;;;9.27;8.37;;;;;;;14.95;80.66;99781.78;5052754;28;20047;-69
2022/06/15 08:03:41;;;;;;;11.03;8.97;;;;;;;14.96;80.63;99786.09;5053152;28;20037;-67
2022/06/15 08:06:06;;;;;;;9.13;8.23;;;;;;;14.91;79.25;99788.59;5052924;28;20037;-64
2022/06/15 08:08:32;;;;;;;10.40;9.00;;;;;;;14.91;79.56;99785.94;5052894;28;20037;-64
2022/06/15 08:10:58;;;;;;;11.03;8.97;;;;;;;14.91;79.55;99777.88;5052939;28;20564;-69
2022/06/15 08:13:24;;;;;;;10.03;8.40;;;;;;;14.90;79.01;99776.25;5054102;28;20069;-67
2022/06/15 08:15:51;;;;;;;9.53;8.20;;;;;;;14.94;79.09;99782.81;5053345;28;20036;-68
2022/06/15 08:18:25;;;;;;;10.10;8.37;;;;;;;15.05;78.88;99784.84;5053266;28;20047;-66
2022/06/15 08:21:01;;;;;;;11.33;8.33;;;;;;;15.22;78.14;99785.13;5053387;28;20090;-71
2022/06/15 08:23:31;;;;;;;9.40;6.60;;;;;;;15.22;76.04;99797.72;5052572;28;20041;-66
2022/06/15 08:26:03;;;;;;;7.33;6.57;;;;;;;15.13;75.78;99787.25;5053254;28;20037;-75
2022/06/15 08:28:32;;;;;;;14.33;11.70;;;;;;;15.23;74.93;99808.22;5052817;28;20033;-73
2022/06/15 08:30:58;;;;;;;17.53;11.83;;;;;;;15.16;75.81;99802.09;5051690;28;20052;-73
2022/06/15 08:33:25;;;;;;;8.50;6.53;;;;;;;15.20;75.76;99800.63;5051249;28;20052;-69
2022/06/15 08:35:51;;;;;;;9.17;7.03;;;;;;;15.25;77.38;99810.69;5052642;28;20044;-71
2022/06/15 08:38:19;;;;;;;8.57;7.13;;;;;;;15.13;77.00;99805.19;5053294;28;20067;-69
2022/06/15 08:40:49;;;;;;;;;;;;;;;15.26;77.56;99812.34;5053522;28;20132;-69
2022/06/15 08:43:39;;;;;;;7.73;6.47;;;;;;;15.21;76.71;99818.34;5052737;28;19917;-69
2022/06/15 08:46:40;;;;;;;9.53;5.83;;;;;;;15.14;75.38;99809.53;5056282;28;20110;-71
2022/06/15 08:49:10;;;;;;;7.23;5.50;;;;;;;15.13;75.84;99818.63;5047978;28;20106;-69
2022/06/15 08:51:41;;;;;;;7.87;6.17;;;;;;;15.11;76.95;99804.59;5054421;28;20049;-67
2022/06/15 08:54:20;;;;;;;9.83;6.83;;;;;;;15.28;77.60;99829.84;5051842;28;20412;-71
2022/06/15 08:56:51;;;;;;;6.50;5.87;;;;;;;15.24;76.53;99831.31;5053376;28;20033;-67
2022/06/15 08:59:31;;;;;;;16.93;7.17;;;;;;;15.31;76.34;99840.16;5053372;28;20083;-69
2022/06/15 09:02:23;;;;;;;10.17;6.23;;;;;;;15.00;75.62;99787.31;5052170;28;20397;-70
2022/06/15 09:04:54;;;;;;;7.67;6.70;;;;;;;15.38;75.27;99837.44;5052262;28;20040;-69
2022/06/15 09:07:47;;;;;;;8.73;5.53;;;;;;;15.49;74.43;99850.16;5052501;28;20041;-69
2022/06/15 09:10:24;;;;;;;11.20;5.23;;;;;;;15.59;73.96;99847.84;5051933;28;20408;-69
2022/06/15 09:13:02;;;;;;;8.83;5.33;;;;;;;15.61;73.69;99850.31;5051029;28;20049;-68
2022/06/15 09:15:41;;;;;;;9.52;6.15;;;;;;;15.77;75.02;99849.78;5052238;28;20086;-68
2022/06/15 09:18:19;;;;;;;11.47;7.50;;;;;;;16.03;73.66;99860.31;5052056;28;20106;-67
2022/06/15 09:20:53;;;;;;;9.45;6.90;;;;;;;16.05;72.09;99844.81;5052094;28;20456;-68
2022/06/15 09:23:31;;;;;;;9.13;6.53;;;;;;;16.31;72.15;99849.09;5051923;28;20052;-68
2022/06/15 09:26:03;;;;;;;7.37;6.00;;;;;;;16.54;71.78;99850.31;5052256;28;20059;-67
2022/06/15 09:28:35;;;;;;;14.23;6.90;;;;;;;16.90;72.07;99857.59;5050902;28;20033;-69
2022/06/15 09:31:09;;;;;;;12.07;6.17;;;;;;;17.01;70.55;99863.00;5052303;28;20119;-69
2022/06/15 09:33:47;;;;;;;8.60;6.90;;;;;;;16.86;69.90;99843.78;5052054;28;20473;-71
2022/06/15 09:36:19;;;;;;;10.57;6.80;;;;;;;16.96;69.70;99841.34;5050625;28;20068;-72
2022/06/15 09:38:45;;;;;;;8.67;6.13;;;;;;;17.18;69.87;99849.78;5050790;28;20507;-68
2022/06/15 09:41:36;;;;;;;14.03;7.13;;;;;;;17.16;69.22;99864.50;5052352;28;20070;-71
2022/06/15 09:44:12;;;;;;;9.87;6.47;;;;;;;17.08;68.74;99864.81;5056470;28;20037;-71
2022/06/15 09:46:56;;;;;;;6.65;5.50;;;;;;;17.32;68.85;99855.78;5055967;28;20518;-73
2022/06/15 09:49:55;;;;;;;7.13;6.40;;;;;;;17.56;67.17;99875.53;5054459;28;20025;-71
2022/06/15 09:52:22;;;;;;;9.45;5.80;;;;;;;17.89;65.89;99856.19;5054118;28;20064;-71
2022/06/15 09:55:22;;;;;;;11.13;6.53;;;;;;;18.16;64.80;99868.16;5055387;28;20067;-70
2022/06/15 09:57:49;;;;;;;12.07;6.30;;;;;;;18.20;65.37;99866.63;5055755;28;20044;-70
2022/06/15 10:00:15;;;;;;;12.73;7.18;;;;;;;17.83;65.36;99814.84;5055494;28;20115;-72
2022/06/15 10:02:46;;;;;;;10.77;7.03;;;;;;;18.19;65.83;99851.53;5055621;28;20503;-67
2022/06/15 10:05:23;;;;;;;10.65;6.22;;;;;;;18.54;66.07;99864.19;5055366;28;20049;-69
2022/06/15 10:07:52;;;;;;;7.70;6.63;;;;;;;18.67;64.15;99871.22;5055464;28;20036;-67
2022/06/15 10:10:28;;;;;;;9.82;7.20;;;;;;;18.68;63.23;99878.25;5055168;28;20587;-68
2022/06/15 10:13:02;;;;;;;10.77;8.25;;;;;;;18.52;63.77;99877.09;5055164;28;20067;-67
2022/06/15 10:15:39;;;;;;;8.68;7.63;;;;;;;18.37;65.02;99882.13;5055108;28;20128;-69
2022/06/15 10:18:31;;;;;;;18.45;9.25;;;;;;;18.11;66.01;99872.63;5055041;28;20072;-69
2022/06/15 10:21:18;;;;;;;12.30;7.72;;;;;;;18.07;65.34;99880.34;5055020;28;20044;-69
2022/06/15 10:23:59;;;;;;;11.38;8.55;;;;;;;18.26;65.69;99887.28;5054951;28;20049;-68
2022/06/15 10:26:33;;;;;;;21.75;10.27;;;;;;;17.96;65.76;99811.13;5054903;28;20037;-71
2022/06/15 10:29:24;;;;;;;20.33;11.35;;;;;;;18.30;64.77;99876.84;5054716;28;20039;-70
2022/06/15 10:32:44;;;;;;;21.17;11.15;;;;;;;18.22;65.50;99893.38;5054240;28;20045;-78
2022/06/15 10:35:17;;;;;;;10.43;9.13;;;;;;;18.04;64.51;99864.66;5012710;28;20034;-73
2022/06/15 10:37:54;;;;;;;23.65;9.95;;;;;;;18.19;64.25;99894.63;5048295;28;20041;-73
2022/06/15 10:40:35;;;;;;;14.27;8.70;;;;;;;18.23;64.26;99889.63;5054181;28;20060;-70
2022/06/15 10:43:32;;;;;;;12.07;7.95;;;;;;;18.23;63.63;99882.38;5053756;28;20090;-75
2022/06/15 10:46:05;;;;;;;9.20;7.13;;;;;;;18.27;63.40;99880.03;5053665;28;20032;-70
2022/06/15 10:48:50;;;;;;;9.10;8.07;;;;;;;18.30;64.53;99884.13;5055119;28;20041;-71
2022/06/15 10:51:36;;;;;;;25.38;9.88;;;;;;;18.39;64.90;99893.47;5054508;28;20029;-70
2022/06/15 10:54:16;;;;;;;29.52;8.63;;;;;;;18.45;64.64;99887.16;5053165;28;20072;-76
2022/06/15 11:02:37;;;;;;;10.73;6.60;;;;;;;18.60;65.24;99909.06;5055380;28;20048;-74
2022/06/15 11:05:09;;;;;;;8.23;5.75;;;;;;;18.94;63.76;99915.50;5055485;28;20032;-71
2022/06/15 11:07:52;;;;;;;9.23;6.03;;;;;;;18.96;62.97;99921.47;5053683;28;20040;-74
2022/06/15 11:10:28;;;;;;;10.60;5.68;;;;;;;18.91;62.46;99925.97;5054439;28;20439;-73
2022/06/15 11:12:56;;;;;;;7.60;6.60;;;;;;;18.80;61.57;99911.44;5054530;28;20036;-72
2022/06/15 11:18:01;;;;;;;12.00;7.07;;;;;;;18.97;62.67;99919.59;5054580;28;20033;-75
2022/06/15 11:18:31;;;;;;;14.95;11.43;;;;;;;18.95;61.96;99913.63;5054628;28;20064;-74
2022/06/15 11:21:06;;;;;;;7.75;6.55;;;;;;;19.05;61.28;99922.75;5054971;28;20116;-76
2022/06/15 11:23:43;;;;;;;7.75;6.13;;;;;;;18.79;61.12;99916.03;5056419;28;20044;-75
2022/06/15 11:29:16;;;;;;;10.10;6.25;;;;;;;18.55;61.51;99876.59;5054127;28;20040;-72
2022/06/15 11:31:43;;;;;;;6.78;5.57;;;;;;;18.97;61.41;99909.63;5053726;28;20039;-70
2022/06/15 11:34:14;;;;;;;12.82;6.65;;;;;;;19.07;60.84;99919.81;5053628;28;20115;-73
2022/06/15 11:36:58;;;;;;;8.20;6.50;;;;;;;19.08;61.44;99919.59;5053720;28;20028;-71
2022/06/15 11:39:31;;;;;;;9.55;5.93;;;;;;;19.00;61.34;99924.53;5054005;28;20056;-76
2022/06/15 11:41:58;;;;;;;9.68;5.53;;;;;;;18.98;62.19;99929.34;5052101;28;20037;-75
2022/06/15 11:44:30;;;;;;;7.78;5.40;;;;;;;19.00;61.25;99919.94;5053516;28;20036;-73
2022/06/15 11:47:06;;;;;;;6.88;5.78;;;;;;;19.16;60.68;99940.00;5053514;28;20043;-68
2022/06/15 11:50:05;;;;;;;10.77;6.10;;;;;;;19.21;59.70;99929.28;5053653;28;20071;-76
2022/06/15 11:52:57;;;;;;;7.93;5.40;;;;;;;19.22;60.04;99936.31;5052789;28;20052;-68
2022/06/15 11:55:31;;;;;;;12.45;5.82;;;;;;;19.11;60.01;99945.28;5053026;28;20094;-69
2022/06/15 11:58:18;;;;;;;10.40;5.78;;;;;;;19.03;61.89;99948.34;5053229;28;20101;-67
2022/06/15 12:00:54;;;;;;;7.18;4.95;;;;;;;18.77;62.45;99922.69;5053060;28;20056;-68
2022/06/15 12:03:37;;;;;;;17.20;6.05;;;;;;;19.04;62.32;99963.47;5052673;28;20083;-71
2022/06/15 12:06:25;;;;;;;6.28;5.47;;;;;;;18.21;62.97;99865.63;5052218;28;20062;-70